Report METAR

 

LIRP - Pisa (civ/It-Afb, Italy
Distance from station: OSO 24km
Dati ricevuti: 05/06/2020 16:45
Few Clouds
Few Clouds
 Vento da SO
Vento: SO 11 km/h
Temperatura: 22°C
P.to Rugiada: 15°C
Umidità: 65%
Pressione: 1000 hPa
Nuvole: Few Clouds
Visibility: 10 km
Cloud details: Few Clouds 914 m
2020/06/05 14:45 LIRP 051445Z 22006KT 9999 FEW030 22/15 Q1000 NOSIG
LIRQ - Firenze/Peretola, Italy
Distance from station: ENE 43km
Dati ricevuti: 05/06/2020 16:50
Parz. nuvoloso
Parz. nuvoloso
 Vento da SO
Vento: SO 17 km/h
Temperatura: 25°C
P.to Rugiada: 13°C
Umidità: 47%
Pressione: 1000 hPa
Nuvole: Parz. nuvoloso
Visibility: 10 km
Cloud details: Parz. nuvoloso 1372 m
2020/06/05 14:50 LIRQ 051450Z 23009KT 9999 SCT045 25/13 Q1000
 
LIVC - Cimone Mountain, Italy
Distance from station: N 55km
Dati ricevuti: 05/06/2020 15:55

 Vento da Variabile
Vento: Variabile 7 km/h
Temperatura: 9°C
Wind Chill: 8°C
P.to Rugiada: 6°C
Umidità: 82%
Pressione: 1007 hPa
2020/06/05 13:55 LIVC 051355Z AUTO VRB04KT //// 09/06 Q1007
LIQW - Sarzana/Luni, Italy
Distance from station: NO 68km
Dati ricevuti: 05/06/2020 13:55
DATI Obsoleti
Parz. nuvoloso
Parz. nuvoloso
 Vento da ESE
Vento: ESE 15 km/h
Temperatura: 21°C
P.to Rugiada: 13°C
Umidità: 60%
Pressione: 999 hPa
Nuvole: Parz. nuvoloso
Visibility: 10 km
Cloud details: Parz. nuvoloso 762 m
2020/06/05 11:55 LIQW 051155Z 11008KT 9999 SCT025 21/13 Q0999
 
LIMT - Cisa Pass, Italy
Distance from station: NO 103km
Dati ricevuti: 23/09/2019 13:55
DATI Obsoleti
Nebbia
Nebbia
 Vento da calmo
Vento: Calma
Temperatura: 10°C
P.to Rugiada: 10°C
Umidità: 100%
Pressione: 1014 hPa
Summary: Nebbia
Visibility: 0 km
2019/09/23 11:55 LIMT 231155Z 00000KT 0000 FG VV/// 10/10 Q1014 RMK MON INVIS VAL INVIS VIS MIN 0000
LIPE - Bologna/Borgo (a, Italy
Distance from station: NNE 103km
Dati ricevuti: 05/06/2020 16:50
Parz. nuvoloso
Parz. nuvoloso
 Vento da O
Vento: O 19 km/h
Temperatura: 25°C
P.to Rugiada: 14°C
Umidità: 51%
Pressione: 999 hPa
Nuvole: Parz. nuvoloso
Visibility: 10 km
Cloud details: Few Clouds 1219 m
Parz. nuvoloso 1372 m
2020/06/05 14:50 LIPE 051450Z 26010KT 230V300 9999 FEW040TCU SCT045 25/14 Q0999
 
LIRX - Monte Calamita, Italy
Distance from station: S 111km
Dati ricevuti: 05/06/2020 15:55
Few Clouds
Few Clouds
 Vento da ONO
Vento: ONO 15 km/h
Temperatura: 22°C
P.to Rugiada: 14°C
Umidità: 61%
Pressione: 1001 hPa
Nuvole: Few Clouds
Visibility: 10 km
Cloud details: Few Clouds 305 m
2020/06/05 13:55 LIRX 051355Z 29008KT 9999 FEW010 22/14 Q1001 RMK FEW VIS MIN 9999 VIS MAR 20 KM
LIRS - Grosseto (it-Afb, Italy
Distance from station: SSE 112km
Dati ricevuti: 05/06/2020 15:55
Parz. nuvoloso
Parz. nuvoloso
 Vento da OSO
Vento: OSO 17 km/h
Temperatura: 25°C
P.to Rugiada: 12°C
Umidità: 44%
Pressione: 1000 hPa
Nuvole: Parz. nuvoloso
Visibility: 10 km
Cloud details: Few Clouds 457 m
Parz. nuvoloso 1219 m
2020/06/05 13:55 LIRS 051355Z 24009KT 9999 FEW015CB SCT040 25/12 Q1000 RETS
 
LIPK - Forli (civ/It-Af, Italy
Distance from station: ENE 125km
Dati ricevuti: 05/06/2020 16:50
Parz. nuvoloso
Parz. nuvoloso
 Vento da O
Vento: O 17 km/h
Temperatura: 27°C
P.to Rugiada: 11°C
Umidità: 37%
Pressione: 999 hPa
Nuvole: Parz. nuvoloso
Visibility: 10 km
Cloud details: Parz. nuvoloso 610 m
2020/06/05 14:50 LIPK 051450Z 27009KT 9999 SCT020 27/11 Q0999
LIMP - Parma, Italy
Distance from station: NNO 126km
Dati ricevuti: 05/06/2020 15:50
Sereno
Sereno
 Vento da NNO
Vento: NNO 11 km/h
Temperatura: 26°C
P.to Rugiada: 19°C
Umidità: 65%
Pressione: 999 hPa
Summary: Sereno
Visibility: superiore a 10 km
2020/06/05 13:50 LIMP 051350Z 33006KT 280V080 CAVOK 26/19 Q0999
 
LIPC - Cervia (it-Afb), Italy
Distance from station: ENE 143km
Dati ricevuti: 05/06/2020 15:55
Few Clouds
Few Clouds
 Vento da E
Vento: E 20 km/h
Temperatura: 23°C
P.to Rugiada: 15°C
Umidità: 61%
Pressione: 1000 hPa
Nuvole: Few Clouds
Visibility: 10 km
Cloud details: Few Clouds 1067 m
2020/06/05 13:55 LIPC 051355Z 09011KT 9999 FEW035 23/15 Q1000
LIPF - Ferrara (aut), Italy
Distance from station: NNE 145km
Dati ricevuti: 05/06/2020 15:55
Parz. nuvoloso
Parz. nuvoloso
 Vento da Variabile
Vento: Variabile 0 km/h
Temperatura: 26°C
P.to Rugiada: 14°C
Umidità: 48%
Pressione: 999 hPa
Nuvole: Parz. nuvoloso
Visibility: 10 km
Cloud details: Parz. nuvoloso 1067 m
2020/06/05 13:55 LIPF 051355Z /////KT 9999 SCT035 26/14 Q0999